Time;durP1;ratioP1;P1;durP2;ratioP2;P2;SDS_P1;SDS_P2;PMS_P1;PMS_P2;Temp;Humidity;BMP_temperature;BMP_pressure;BME280_temperature;BME280_humidity;BME280_pressure;Samples;Min_cycle;Max_cycle;Signal;HPM_P1;HPM_P2
2023/10/24 00:00:53;;;;;;;16.70;13.03;;;;;;;10.58;90.57;100266.84;5052504;28;20671;-63
2023/10/24 00:03:21;;;;;;;16.17;12.50;;;;;;;10.58;90.36;100268.56;5049285;28;20280;-64
2023/10/24 00:05:51;;;;;;;15.30;12.23;;;;;;;10.55;89.98;100271.16;5057616;28;20194;-64
2023/10/24 00:08:19;;;;;;;15.90;11.77;;;;;;;10.51;90.05;100272.91;5063010;28;20710;-63
2023/10/24 00:10:48;;;;;;;15.30;12.20;;;;;;;10.51;89.68;100265.19;5048338;28;20210;-64
2023/10/24 00:13:16;;;;;;;17.17;12.70;;;;;;;10.51;90.04;100270.34;5049246;28;20198;-63
2023/10/24 00:15:44;;;;;;;14.47;12.57;;;;;;;10.49;90.00;100264.31;5056595;28;20237;-61
2023/10/24 00:18:13;;;;;;;15.57;12.47;;;;;;;10.47;89.96;100263.50;5049709;28;20256;-62
2023/10/24 00:20:41;;;;;;;15.03;12.13;;;;;;;10.47;89.96;100266.06;5054204;28;20340;-63
2023/10/24 00:23:09;;;;;;;14.70;12.50;;;;;;;10.48;90.10;100265.19;5052361;28;20299;-64
2023/10/24 00:25:37;;;;;;;17.00;13.20;;;;;;;10.48;89.92;100254.88;5048433;28;20194;-62
2023/10/24 00:28:07;;;;;;;19.53;13.30;;;;;;;10.48;90.29;100251.47;5054069;28;20649;-62
2023/10/24 00:30:35;;;;;;;15.90;12.87;;;;;;;10.47;89.48;100253.19;5047382;28;20194;-62
2023/10/24 00:33:09;;;;;;;15.47;13.37;;;;;;;10.46;90.19;100255.78;5052655;28;20213;-63
2023/10/24 00:35:37;;;;;;;18.43;13.57;;;;;;;10.48;90.39;100254.88;5047420;28;20213;-62
2023/10/24 00:38:05;;;;;;;17.20;12.50;;;;;;;10.45;89.51;100248.91;5059669;28;20201;-63
2023/10/24 00:40:34;;;;;;;16.07;12.23;;;;;;;10.42;89.04;100254.06;5056026;28;20232;-63
2023/10/24 00:43:05;;;;;;;15.07;12.00;;;;;;;10.38;89.19;100258.41;5057333;28;20592;-63
2023/10/24 00:45:35;;;;;;;21.13;13.27;;;;;;;10.35;89.50;100261.88;5049033;28;20204;-62
2023/10/24 00:48:06;;;;;;;17.97;13.53;;;;;;;10.40;91.07;100261.81;5051130;28;20953;-62
2023/10/24 00:50:34;;;;;;;17.60;14.43;;;;;;;10.39;90.34;100266.13;5050575;28;20519;-61
2023/10/24 00:53:02;;;;;;;17.30;14.50;;;;;;;10.40;91.32;100265.25;5055040;28;20288;-63
2023/10/24 00:55:31;;;;;;;17.33;13.83;;;;;;;10.45;91.95;100269.50;5054625;28;20232;-62
2023/10/24 00:58:01;;;;;;;18.13;14.00;;;;;;;10.48;91.91;100274.66;5044272;28;20229;-63
2023/10/24 01:00:30;;;;;;;16.53;13.47;;;;;;;10.51;91.74;100274.63;5047209;28;20642;-62
2023/10/24 01:03:00;;;;;;;16.33;12.57;;;;;;;10.55;91.46;100278.88;5053357;28;20241;-63
2023/10/24 01:05:29;;;;;;;18.47;12.93;;;;;;;10.55;91.23;100264.28;5046641;28;20198;-64
2023/10/24 01:07:56;;;;;;;20.40;14.47;;;;;;;10.63;91.83;100271.94;5048616;28;20201;-65
2023/10/24 01:10:24;;;;;;;18.13;13.10;;;;;;;10.68;91.48;100266.75;5057547;28;20205;-61
2023/10/24 01:12:53;;;;;;;14.43;11.53;;;;;;;10.67;90.41;100271.06;5057236;28;20206;-63
2023/10/24 01:15:21;;;;;;;13.77;11.97;;;;;;;10.65;89.29;100267.66;5057174;28;20252;-61
2023/10/24 01:17:49;;;;;;;17.37;12.30;;;;;;;10.64;89.31;100255.63;5052517;28;20225;-65
2023/10/24 01:20:19;;;;;;;15.80;12.33;;;;;;;10.68;89.80;100261.59;5052707;28;20629;-60
2023/10/24 01:22:48;;;;;;;16.93;13.03;;;;;;;10.70;89.73;100260.72;5051172;28;20209;-63
2023/10/24 01:25:16;;;;;;;17.23;13.00;;;;;;;10.71;89.37;100262.44;5050457;28;20242;-61
2023/10/24 01:27:45;;;;;;;18.77;12.43;;;;;;;10.72;89.30;100258.16;5046678;28;20210;-63
2023/10/24 01:30:14;;;;;;;14.47;11.77;;;;;;;10.71;88.84;100256.41;5052175;28;20295;-64
2023/10/24 01:32:42;;;;;;;16.37;12.37;;;;;;;10.74;89.17;100261.56;5060699;28;20197;-64
2023/10/24 01:35:11;;;;;;;17.60;12.63;;;;;;;10.76;89.09;100264.97;5061458;28;20197;-65
2023/10/24 01:37:38;;;;;;;16.03;12.83;;;;;;;10.76;88.62;100257.25;5054586;28;20232;-61
2023/10/24 01:40:09;;;;;;;16.53;13.80;;;;;;;10.78;88.87;100258.94;5056128;28;20198;-66
2023/10/24 01:42:37;;;;;;;15.67;12.83;;;;;;;10.76;88.87;100252.94;5059429;28;20224;-61
2023/10/24 01:45:06;;;;;;;15.97;13.60;;;;;;;10.75;88.74;100253.81;5051993;28;20552;-64
2023/10/24 01:47:34;;;;;;;18.20;13.50;;;;;;;10.74;88.67;100256.41;5053645;28;20577;-61
2023/10/24 01:50:03;;;;;;;17.60;12.83;;;;;;;10.71;88.81;100248.69;5051861;28;20296;-63
2023/10/24 01:52:32;;;;;;;15.43;12.73;;;;;;;10.69;88.95;100248.72;5053064;28;20672;-64
2023/10/24 01:55:00;;;;;;;15.50;13.40;;;;;;;10.66;88.89;100245.31;5053900;28;20206;-64
2023/10/24 01:57:29;;;;;;;15.63;12.37;;;;;;;10.62;88.89;100242.75;5052787;28;20198;-63
2023/10/24 01:59:57;;;;;;;15.67;13.37;;;;;;;10.59;89.27;100242.78;5056500;28;20296;-65
2023/10/24 02:02:26;;;;;;;16.93;13.10;;;;;;;10.58;89.59;100240.22;5048579;28;20264;-62
2023/10/24 02:04:54;;;;;;;13.43;11.83;;;;;;;10.56;89.59;100244.53;5051991;28;20293;-61
2023/10/24 02:07:27;;;;;;;16.77;14.20;;;;;;;10.55;89.59;100241.09;5063319;28;20198;-64
2023/10/24 02:09:55;;;;;;;16.53;12.83;;;;;;;10.55;90.06;100240.25;5059735;28;20726;-63
2023/10/24 02:12:24;;;;;;;15.80;12.63;;;;;;;10.54;89.68;100241.97;5052074;28;20198;-64
2023/10/24 02:14:53;;;;;;;18.40;13.30;;;;;;;10.56;89.61;100244.53;5050027;28;20233;-62
2023/10/24 02:17:21;;;;;;;16.20;12.87;;;;;;;10.52;89.27;100237.69;5061826;28;20291;-64
2023/10/24 02:19:51;;;;;;;18.03;12.97;;;;;;;10.51;89.67;100242.00;5055430;28;20213;-64
2023/10/24 02:22:19;;;;;;;17.87;12.30;;;;;;;10.49;89.21;100237.72;5053591;28;20699;-63
2023/10/24 02:24:47;;;;;;;16.70;13.00;;;;;;;10.48;89.23;100239.44;5058162;28;20335;-63
2023/10/24 02:27:15;;;;;;;15.50;12.33;;;;;;;10.45;88.89;100241.19;5051432;28;20202;-63
2023/10/24 02:29:42;;;;;;;14.00;11.50;;;;;;;10.43;88.57;100238.63;5050957;28;20225;-64
2023/10/24 02:32:12;;;;;;;18.10;13.13;;;;;;;10.39;89.10;100237.78;5059692;28;20233;-71
2023/10/24 02:34:40;;;;;;;16.70;13.57;;;;;;;10.35;89.40;100233.53;5064906;28;20660;-68
2023/10/24 02:37:08;;;;;;;15.80;13.43;;;;;;;10.31;90.12;100226.72;5053540;28;20541;-69
2023/10/24 02:39:36;;;;;;;14.53;12.83;;;;;;;10.30;90.12;100242.16;5055746;28;20205;-70
2023/10/24 02:42:04;;;;;;;18.93;13.30;;;;;;;10.33;90.75;100239.56;5056404;28;20742;-71
2023/10/24 02:44:32;;;;;;;16.23;13.57;;;;;;;10.37;91.18;100241.25;5062547;28;20255;-71
2023/10/24 02:47:00;;;;;;;18.90;13.80;;;;;;;10.43;90.97;100248.94;5052788;28;20209;-71
2023/10/24 02:49:31;;;;;;;15.73;13.43;;;;;;;10.49;90.78;100240.28;5054779;28;20250;-69
2023/10/24 02:51:59;;;;;;;17.50;13.70;;;;;;;10.53;90.92;100250.56;5055465;28;20206;-69
2023/10/24 02:54:28;;;;;;;21.13;15.10;;;;;;;10.57;90.57;100241.94;5063961;28;20260;-69
2023/10/24 02:56:56;;;;;;;16.13;13.10;;;;;;;10.59;89.86;100245.34;5051287;28;20245;-68
2023/10/24 02:59:24;;;;;;;18.57;13.37;;;;;;;10.58;89.63;100235.91;5050051;28;20234;-70
2023/10/24 03:01:51;;;;;;;14.90;12.93;;;;;;;10.58;89.85;100233.34;5058044;28;20205;-69
2023/10/24 03:04:20;;;;;;;16.90;13.83;;;;;;;10.58;90.31;100235.06;5059632;28;20580;-69
2023/10/24 03:06:49;;;;;;;17.13;13.23;;;;;;;10.59;90.41;100227.31;5054275;28;20570;-65
2023/10/24 03:09:17;;;;;;;18.23;14.00;;;;;;;10.61;90.75;100230.75;5056163;28;20699;-62
2023/10/24 03:11:45;;;;;;;17.93;13.07;;;;;;;10.65;90.45;100234.16;5054437;28;20202;-67
2023/10/24 03:14:12;;;;;;;14.60;13.03;;;;;;;10.69;90.22;100229.81;5058598;28;20233;-63
2023/10/24 03:16:40;;;;;;;18.13;14.07;;;;;;;10.71;90.42;100222.91;5051181;28;20598;-61
2023/10/24 03:19:09;;;;;;;19.87;13.07;;;;;;;10.76;89.93;100223.75;5050980;28;20289;-61
2023/10/24 03:21:37;;;;;;;15.57;12.57;;;;;;;10.77;89.45;100221.13;5051661;28;20571;-62
2023/10/24 03:24:07;;;;;;;16.93;12.70;;;;;;;10.79;89.46;100221.16;5052174;28;20730;-61
2023/10/24 03:26:36;;;;;;;15.37;12.23;;;;;;;10.80;89.29;100226.28;5058001;28;20194;-64
2023/10/24 03:29:04;;;;;;;14.83;13.20;;;;;;;10.81;89.89;100220.25;5047985;28;20206;-60
2023/10/24 03:31:32;;;;;;;18.63;13.30;;;;;;;10.83;89.87;100220.25;5050598;28;20198;-62
2023/10/24 03:34:00;;;;;;;14.20;12.53;;;;;;;10.82;89.63;100223.66;5048716;28;20677;-62
2023/10/24 03:36:28;;;;;;;17.53;12.47;;;;;;;10.81;89.63;100221.97;5049381;28;20248;-61
2023/10/24 03:38:56;;;;;;;18.73;13.70;;;;;;;10.82;89.83;100227.09;5058298;28;20257;-63
2023/10/24 03:41:25;;;;;;;16.23;13.87;;;;;;;10.80;89.89;100218.53;5056085;28;20216;-65
2023/10/24 03:43:53;;;;;;;15.20;13.47;;;;;;;10.77;90.27;100228.03;5056479;28;20563;-68
2023/10/24 03:46:21;;;;;;;18.17;14.33;;;;;;;10.79;90.68;100222.00;5058102;28;20544;-68
2023/10/24 03:48:49;;;;;;;19.27;14.60;;;;;;;10.80;90.50;100220.28;5054970;28;20202;-67
2023/10/24 03:51:17;;;;;;;20.13;14.37;;;;;;;10.76;90.72;100216.03;5055307;28;20252;-70
2023/10/24 03:53:46;;;;;;;23.13;14.80;;;;;;;10.70;90.91;100208.34;5045475;28;20205;-68
2023/10/24 03:56:14;;;;;;;18.57;14.03;;;;;;;10.67;91.50;100208.34;5051544;28;20255;-70
2023/10/24 03:58:43;;;;;;;18.67;14.80;;;;;;;10.64;91.51;100204.06;5057342;28;20623;-69
2023/10/24 04:01:13;;;;;;;20.30;14.90;;;;;;;10.65;91.27;100205.81;5056142;28;20253;-65
2023/10/24 04:03:44;;;;;;;19.70;14.63;;;;;;;10.60;91.14;100203.28;5050092;28;20217;-70
2023/10/24 04:06:13;;;;;;;17.93;14.83;;;;;;;10.57;92.01;100202.44;5057744;28;20237;-69
2023/10/24 04:08:41;;;;;;;18.27;14.50;;;;;;;10.53;91.84;100193.91;5053570;28;20536;-69
2023/10/24 04:11:13;;;;;;;22.90;15.13;;;;;;;10.53;91.96;100196.47;5041213;28;20202;-69
2023/10/24 04:13:42;;;;;;;24.47;15.23;;;;;;;10.53;92.05;100191.31;5050977;28;20210;-70
2023/10/24 04:16:11;;;;;;;22.37;15.67;;;;;;;10.48;92.07;100184.47;5049970;28;20237;-71
2023/10/24 04:18:39;;;;;;;24.40;15.60;;;;;;;10.45;91.93;100172.47;5050179;28;20214;-70
2023/10/24 04:21:07;;;;;;;23.23;16.13;;;;;;;10.43;92.10;100173.38;5050267;28;20201;-68
2023/10/24 04:23:50;;;;;;;19.10;14.43;;;;;;;10.36;92.20;100168.28;5005997;28;20293;-62
2023/10/24 04:26:18;;;;;;;19.37;14.93;;;;;;;10.27;91.99;100170.06;5046774;28;20614;-62
2023/10/24 04:28:48;;;;;;;20.23;15.23;;;;;;;10.16;92.53;100164.97;5049830;28;20295;-63
2023/10/24 04:31:16;;;;;;;24.40;16.43;;;;;;;10.06;93.03;100153.91;5052163;28;20223;-62
2023/10/24 04:33:44;;;;;;;18.97;15.90;;;;;;;10.03;93.61;100153.91;5056632;28;20212;-69
2023/10/24 04:36:12;;;;;;;19.40;15.77;;;;;;;9.99;93.99;100154.81;5055124;28;20396;-68
2023/10/24 04:38:40;;;;;;;21.27;15.83;;;;;;;9.99;94.09;100159.09;5054018;28;20258;-69
2023/10/24 04:41:08;;;;;;;20.50;15.37;;;;;;;9.98;94.21;100162.53;5047289;28;20209;-68
2023/10/24 04:43:36;;;;;;;21.50;15.37;;;;;;;9.98;93.67;100165.97;5050619;28;20209;-62
2023/10/24 04:46:05;;;;;;;20.17;15.13;;;;;;;9.96;93.74;100159.97;5050041;28;20737;-67
2023/10/24 04:48:33;;;;;;;18.77;14.83;;;;;;;9.94;93.69;100169.41;5057882;28;20272;-62
2023/10/24 04:51:04;;;;;;;18.93;15.37;;;;;;;9.94;94.01;100172.00;5060720;28;20241;-63
2023/10/24 04:53:32;;;;;;;21.13;15.73;;;;;;;9.93;93.97;100163.41;5052124;28;20201;-63
2023/10/24 04:56:00;;;;;;;23.27;16.07;;;;;;;9.93;93.77;100163.41;5059145;28;20627;-65
2023/10/24 04:58:28;;;;;;;20.30;15.30;;;;;;;9.95;93.51;100175.44;5052763;28;20248;-65
2023/10/24 05:00:56;;;;;;;19.10;15.30;;;;;;;9.93;93.18;100184.00;5050904;28;20206;-62
2023/10/24 05:03:25;;;;;;;20.90;16.30;;;;;;;9.88;93.99;100172.06;5050742;28;22037;-62
2023/10/24 05:05:53;;;;;;;20.57;16.37;;;;;;;9.94;94.43;100187.44;5053426;28;20205;-62
2023/10/24 05:08:21;;;;;;;20.60;16.03;;;;;;;9.99;94.82;100195.16;5052540;28;20628;-63
2023/10/24 05:10:49;;;;;;;19.13;15.67;;;;;;;10.01;94.84;100191.69;5048312;28;20589;-62
2023/10/24 05:13:17;;;;;;;21.80;16.40;;;;;;;10.03;94.28;100189.97;5040785;28;20232;-61
2023/10/24 05:15:46;;;;;;;20.40;15.93;;;;;;;10.06;93.83;100200.25;5048060;28;20241;-64
2023/10/24 05:18:14;;;;;;;20.43;14.73;;;;;;;10.08;93.75;100206.22;5047383;28;20359;-66
2023/10/24 05:20:43;;;;;;;17.27;14.67;;;;;;;10.10;93.52;100207.06;5052219;28;20201;-62
2023/10/24 05:23:11;;;;;;;17.10;14.17;;;;;;;10.13;93.26;100212.22;5052581;28;20579;-63
2023/10/24 05:25:41;;;;;;;21.27;16.20;;;;;;;10.14;93.11;100211.34;5045490;28;20210;-63
2023/10/24 05:28:11;;;;;;;22.40;17.33;;;;;;;10.20;92.69;100214.72;5048319;28;20549;-67
2023/10/24 05:30:39;;;;;;;19.87;15.43;;;;;;;10.23;92.10;100209.53;5047542;28;20217;-68
2023/10/24 05:33:08;;;;;;;22.57;15.67;;;;;;;10.26;91.84;100214.72;5048755;28;20244;-69
2023/10/24 05:35:36;;;;;;;18.50;13.93;;;;;;;10.29;91.94;100217.28;5046527;28;20679;-69
2023/10/24 05:38:05;;;;;;;19.00;14.30;;;;;;;10.32;91.73;100222.41;5049957;28;20615;-68
2023/10/24 05:40:34;;;;;;;19.07;14.73;;;;;;;10.34;91.63;100231.81;5060363;28;20202;-64
2023/10/24 05:43:02;;;;;;;18.13;14.73;;;;;;;10.36;91.52;100229.25;5050661;28;20818;-69
2023/10/24 05:45:29;;;;;;;19.83;13.83;;;;;;;10.38;91.75;100238.66;5052234;28;20570;-64
2023/10/24 05:47:57;;;;;;;19.87;14.30;;;;;;;10.43;91.81;100233.47;5045939;28;20288;-61
2023/10/24 05:50:26;;;;;;;19.17;13.43;;;;;;;10.43;91.71;100230.06;5048247;28;20297;-63
2023/10/24 05:52:55;;;;;;;18.27;13.03;;;;;;;10.43;91.30;100241.19;5047571;28;20566;-64
2023/10/24 05:55:25;;;;;;;20.80;14.50;;;;;;;10.44;91.71;100242.06;5055778;28;20217;-68
2023/10/24 05:57:53;;;;;;;20.47;13.50;;;;;;;10.50;91.40;100247.16;5049204;28;20232;-66
2023/10/24 06:00:21;;;;;;;20.03;14.10;;;;;;;10.53;90.85;100241.97;5058813;28;20685;-67
2023/10/24 06:02:48;;;;;;;22.50;14.03;;;;;;;10.56;90.74;100237.66;5055217;28;20559;-65
2023/10/24 06:05:17;;;;;;;19.63;13.70;;;;;;;10.59;90.31;100240.19;5053711;28;20670;-66
2023/10/24 06:07:44;;;;;;;16.80;12.60;;;;;;;10.53;89.95;100237.69;5055902;28;20509;-64
2023/10/24 06:10:12;;;;;;;19.20;11.77;;;;;;;10.46;89.94;100235.19;5053161;28;20299;-65
2023/10/24 06:12:42;;;;;;;21.50;12.47;;;;;;;10.40;90.03;100231.78;5047315;28;20206;-67
2023/10/24 06:15:11;;;;;;;18.23;12.73;;;;;;;10.34;90.19;100230.94;5049157;28;20267;-67
2023/10/24 06:17:39;;;;;;;18.90;13.20;;;;;;;10.34;90.47;100230.94;5053841;28;20297;-68
2023/10/24 06:20:08;;;;;;;21.07;12.90;;;;;;;10.34;90.21;100226.66;5055807;28;20206;-67
2023/10/24 06:22:37;;;;;;;20.20;12.70;;;;;;;10.34;90.71;100223.22;5048231;28;20230;-67
2023/10/24 06:25:05;;;;;;;18.67;13.03;;;;;;;10.37;90.99;100218.91;5049704;28;20646;-67
2023/10/24 06:27:33;;;;;;;22.77;13.17;;;;;;;10.41;91.07;100212.00;5052441;28;20570;-66
2023/10/24 06:30:03;;;;;;;23.60;13.93;;;;;;;10.43;90.97;100210.28;5048460;28;20216;-66
2023/10/24 06:32:31;;;;;;;22.93;13.10;;;;;;;10.47;91.17;100211.97;5052796;28;20769;-65
2023/10/24 06:34:59;;;;;;;24.17;13.67;;;;;;;10.51;91.22;100205.06;5057798;28;20305;-64
2023/10/24 06:37:27;;;;;;;23.17;13.60;;;;;;;10.49;91.06;100199.06;5053324;28;20198;-63
2023/10/24 06:39:55;;;;;;;24.27;13.47;;;;;;;10.49;91.28;100199.91;5055703;28;20226;-65
2023/10/24 06:42:24;;;;;;;22.13;14.63;;;;;;;10.53;91.19;100195.59;5051749;28;20206;-65
2023/10/24 06:44:52;;;;;;;21.60;13.13;;;;;;;10.59;91.58;100196.41;5057935;28;20210;-63
2023/10/24 06:47:21;;;;;;;24.67;14.60;;;;;;;10.70;91.60;100198.03;5059047;28;20553;-63
2023/10/24 06:49:49;;;;;;;23.00;13.53;;;;;;;10.77;91.57;100200.53;5053531;28;20198;-63
2023/10/24 06:52:17;;;;;;;21.50;13.97;;;;;;;10.83;91.25;100204.78;5054595;28;20522;-63
2023/10/24 06:54:46;;;;;;;20.03;14.27;;;;;;;10.86;91.07;100199.56;5051179;28;20210;-66
2023/10/24 06:57:14;;;;;;;21.83;14.23;;;;;;;10.83;90.62;100197.91;5056094;28;20198;-65
2023/10/24 06:59:42;;;;;;;20.07;14.73;;;;;;;10.84;90.91;100191.00;5058800;28;20218;-64
2023/10/24 07:02:10;;;;;;;19.70;12.53;;;;;;;10.86;91.42;100189.25;5059237;28;20566;-63
2023/10/24 07:04:39;;;;;;;24.90;14.17;;;;;;;10.88;91.10;100195.25;5052127;28;20205;-62
2023/10/24 07:07:07;;;;;;;23.60;14.23;;;;;;;10.91;91.34;100197.81;5062453;28;20202;-65
2023/10/24 07:09:36;;;;;;;21.07;14.57;;;;;;;10.97;91.40;100204.63;5054744;28;20653;-65
2023/10/24 07:12:04;;;;;;;18.93;13.53;;;;;;;11.00;90.92;100202.84;5058675;28;20213;-65
2023/10/24 07:14:32;;;;;;;20.20;14.77;;;;;;;11.06;90.67;100205.38;5058704;28;20695;-64
2023/10/24 07:17:00;;;;;;;20.50;13.73;;;;;;;11.19;90.41;100212.97;5051210;28;20272;-64
2023/10/24 07:19:28;;;;;;;22.27;14.87;;;;;;;11.31;90.39;100208.53;5044823;28;20257;-63
2023/10/24 07:21:58;;;;;;;21.50;14.63;;;;;;;11.42;89.29;100211.00;5047367;28;20210;-64
2023/10/24 07:24:25;;;;;;;23.67;14.70;;;;;;;11.52;89.08;100216.88;5049241;28;20229;-64
2023/10/24 07:26:53;;;;;;;27.20;16.47;;;;;;;11.56;88.04;100214.25;5047492;28;20206;-67
2023/10/24 07:29:23;;;;;;;25.20;15.30;;;;;;;11.60;87.87;100209.91;5051314;28;20293;-64
2023/10/24 07:31:51;;;;;;;23.90;15.47;;;;;;;11.62;87.63;100213.31;5050310;28;20668;-62
2023/10/24 07:34:19;;;;;;;25.33;15.70;;;;;;;11.67;87.39;100208.94;5055984;28;20658;-64
2023/10/24 07:36:47;;;;;;;22.40;15.30;;;;;;;11.65;86.86;100212.41;5049121;28;20289;-63
2023/10/24 07:39:17;;;;;;;30.03;16.37;;;;;;;11.66;87.25;100202.06;5051180;28;20264;-65
2023/10/24 07:41:45;;;;;;;30.47;17.27;;;;;;;11.75;87.49;100198.53;5051182;28;20689;-62
2023/10/24 07:44:13;;;;;;;30.87;17.80;;;;;;;11.81;87.27;100198.41;5051578;28;20572;-63
2023/10/24 07:46:41;;;;;;;28.53;16.83;;;;;;;11.90;86.24;100203.50;5047974;28;20637;-71
2023/10/24 07:49:10;;;;;;;25.00;17.30;;;;;;;11.97;86.99;100206.84;5049952;28;20202;-62
2023/10/24 07:51:38;;;;;;;32.33;18.43;;;;;;;12.13;86.47;100204.88;5050357;28;20215;-63
2023/10/24 07:54:06;;;;;;;28.73;17.00;;;;;;;12.27;85.87;100213.28;5053177;28;20208;-62
2023/10/24 07:56:36;;;;;;;26.47;16.07;;;;;;;12.41;85.47;100211.31;5048694;28;20206;-64
2023/10/24 07:59:05;;;;;;;23.87;15.57;;;;;;;12.57;84.99;100220.50;5059632;28;20229;-62
2023/10/24 08:01:33;;;;;;;24.73;15.47;;;;;;;12.71;83.91;100209.94;5061956;28;20205;-63
2023/10/24 08:04:03;;;;;;;22.43;15.93;;;;;;;12.79;83.44;100182.22;5053615;28;20245;-64
2023/10/24 08:06:31;;;;;;;25.50;16.70;;;;;;;12.72;82.43;100169.44;5045030;28;20214;-67
2023/10/24 08:08:59;;;;;;;23.37;16.20;;;;;;;12.55;82.10;100157.63;5052811;28;20194;-64
2023/10/24 08:11:27;;;;;;;21.50;15.90;;;;;;;12.38;82.84;100144.19;5050812;28;20727;-64
2023/10/24 08:13:57;;;;;;;23.60;15.37;;;;;;;12.24;83.41;100151.31;5050276;28;20658;-63
2023/10/24 08:16:25;;;;;;;20.83;14.27;;;;;;;12.04;83.18;100152.50;5050612;28;20206;-64
2023/10/24 08:18:53;;;;;;;20.33;14.17;;;;;;;11.85;83.99;100159.66;5055832;28;20247;-64
2023/10/24 08:21:21;;;;;;;23.30;15.23;;;;;;;11.70;85.26;100159.00;5046537;28;20203;-63
2023/10/24 08:23:49;;;;;;;26.13;16.03;;;;;;;11.58;85.57;100149.69;5055275;28;20609;-63
2023/10/24 08:26:17;;;;;;;23.07;15.83;;;;;;;11.49;86.65;100130.06;5063527;28;20198;-63
2023/10/24 08:28:44;;;;;;;29.30;16.53;;;;;;;11.43;87.21;100109.50;5052844;28;20201;-62
2023/10/24 08:31:14;;;;;;;24.97;17.00;;;;;;;11.41;87.45;100110.38;5048668;28;20221;-63
2023/10/24 08:33:43;;;;;;;31.80;18.37;;;;;;;11.35;87.46;100112.19;5054110;28;20211;-63
2023/10/24 08:36:11;;;;;;;33.20;19.80;;;;;;;11.34;87.98;100119.91;5050770;28;20212;-63
2023/10/24 08:38:39;;;;;;;28.13;17.27;;;;;;;11.28;88.01;100115.72;5046956;28;20260;-62
2023/10/24 08:41:07;;;;;;;28.20;17.93;;;;;;;11.13;87.36;100114.19;5050511;28;20600;-63
2023/10/24 08:43:36;;;;;;;28.23;16.80;;;;;;;11.03;88.41;100125.47;5054422;28;20205;-64
2023/10/24 08:46:08;;;;;;;26.93;16.50;;;;;;;10.98;88.52;100126.41;5045440;28;20206;-66
2023/10/24 08:48:38;;;;;;;25.70;16.67;;;;;;;10.97;88.96;100115.25;5049969;28;20624;-63
2023/10/24 08:51:06;;;;;;;25.00;17.20;;;;;;;11.00;89.43;100106.63;5064385;28;20266;-62
2023/10/24 08:53:34;;;;;;;24.83;16.93;;;;;;;11.04;89.15;100118.59;5062779;28;20698;-64
2023/10/24 08:56:03;;;;;;;23.73;16.37;;;;;;;11.11;89.67;100122.81;5054895;28;20201;-64
2023/10/24 08:58:35;;;;;;;24.57;16.67;;;;;;;11.34;90.08;100140.56;5050646;28;20313;-65
2023/10/24 09:01:03;;;;;;;27.17;17.30;;;;;;;11.59;89.53;100144.50;5054722;28;20236;-64
2023/10/24 09:03:32;;;;;;;23.57;16.57;;;;;;;11.84;87.92;100144.19;5053195;28;20206;-65
2023/10/24 09:06:02;;;;;;;23.77;16.33;;;;;;;12.03;87.25;100134.44;5048039;28;20256;-63
2023/10/24 09:08:30;;;;;;;24.37;15.63;;;;;;;12.30;86.14;100146.06;5047261;28;20205;-66
2023/10/24 09:10:58;;;;;;;22.50;16.40;;;;;;;12.48;84.76;100145.72;5047921;28;20208;-66
2023/10/24 09:13:26;;;;;;;21.03;14.80;;;;;;;12.64;83.37;100150.63;5051779;28;20205;-66
2023/10/24 09:16:07;;;;;;;21.17;15.47;;;;;;;12.81;82.45;100145.97;5060989;28;20653;-66
2023/10/24 09:18:37;;;;;;;20.37;14.27;;;;;;;12.88;82.00;100141.53;5039472;28;20662;-64
2023/10/24 09:21:08;;;;;;;21.17;15.00;;;;;;;12.95;80.91;100138.78;5061749;28;20343;-66
2023/10/24 09:23:37;;;;;;;19.03;13.47;;;;;;;13.02;81.03;100140.38;5057247;28;20212;-63
2023/10/24 09:26:07;;;;;;;17.60;13.20;;;;;;;13.10;80.04;100123.84;5057116;28;20229;-67
2023/10/24 09:28:36;;;;;;;17.33;13.33;;;;;;;13.16;79.27;100118.56;5049658;28;20621;-64
2023/10/24 09:31:04;;;;;;;17.10;13.37;;;;;;;13.17;78.82;100109.91;5052995;28;20290;-65
2023/10/24 09:33:33;;;;;;;16.40;12.30;;;;;;;13.13;78.27;100092.75;5054602;28;20209;-64
2023/10/24 09:36:02;;;;;;;19.00;13.37;;;;;;;13.06;78.25;100087.69;5057003;28;20700;-65
2023/10/24 09:38:43;;;;;;;17.70;11.93;;;;;;;12.93;78.59;100075.06;5052770;28;20209;-65
2023/10/24 09:41:11;;;;;;;17.67;13.07;;;;;;;12.85;79.34;100084.69;5052867;28;20213;-65
2023/10/24 09:43:47;;;;;;;20.03;13.43;;;;;;;12.83;79.70;100095.09;5058645;28;20654;-66
2023/10/24 09:46:19;;;;;;;16.70;13.50;;;;;;;12.80;80.21;100095.16;5054625;28;20208;-64
2023/10/24 09:48:48;;;;;;;19.57;13.37;;;;;;;12.81;80.31;100089.09;5066257;28;20202;-66
2023/10/24 09:51:19;;;;;;;16.73;11.70;;;;;;;12.77;80.34;100083.13;5058743;28;20201;-65
2023/10/24 09:53:49;;;;;;;17.97;12.03;;;;;;;12.74;80.22;100066.81;5056983;28;20650;-65
2023/10/24 09:56:18;;;;;;;16.97;11.53;;;;;;;12.74;80.62;100059.06;5062804;28;20571;-66
2023/10/24 09:58:46;;;;;;;13.40;9.83;;;;;;;12.72;80.12;100053.09;5052763;28;20198;-67
2023/10/24 10:01:14;;;;;;;20.30;12.70;;;;;;;12.68;80.73;100044.53;5052843;28;20225;-64
2023/10/24 10:03:44;;;;;;;15.77;11.70;;;;;;;12.66;80.49;100037.69;5053845;28;20288;-66
2023/10/24 10:06:16;;;;;;;17.53;11.30;;;;;;;12.67;80.89;100018.72;5051498;28;20288;-65
2023/10/24 10:08:56;;;;;;;15.23;10.97;;;;;;;12.66;80.67;100004.06;5054778;28;20248;-69
2023/10/24 10:11:27;;;;;;;16.13;11.30;;;;;;;12.65;81.37;100003.22;5054129;28;20648;-71
2023/10/24 10:14:00;;;;;;;17.17;10.53;;;;;;;12.67;81.44;99998.06;5043188;28;20208;-70
2023/10/24 10:16:55;;;;;;;10.37;8.87;;;;;;;12.67;81.88;99985.13;5062261;28;20257;-70
2023/10/24 10:19:38;;;;;;;13.10;10.03;;;;;;;12.71;81.33;99976.41;5055200;28;20201;-71
2023/10/24 10:22:37;;;;;;;10.73;9.03;;;;;;;12.69;80.61;99978.16;5055784;28;20197;-68
2023/10/24 10:25:51;;;;;;;14.67;10.10;;;;;;;12.67;81.40;99985.97;5056073;28;20392;-69
2023/10/24 10:28:32;;;;;;;11.00;8.37;;;;;;;12.73;81.41;99982.38;5014377;28;20241;-70
2023/10/24 10:31:07;;;;;;;13.07;8.93;;;;;;;12.79;81.55;99995.19;5053561;28;20205;-71
2023/10/24 10:33:57;;;;;;;13.00;9.13;;;;;;;12.84;81.59;99997.69;5055180;28;20206;-69
2023/10/24 10:36:26;;;;;;;11.20;8.33;;;;;;;12.89;81.23;99996.72;5053369;28;20220;-67
2023/10/24 10:38:59;;;;;;;10.27;7.57;;;;;;;12.93;79.95;99985.41;5056754;28;20592;-69
2023/10/24 10:41:44;;;;;;;9.57;7.57;;;;;;;12.99;80.49;99982.66;5059517;28;20772;-68
2023/10/24 10:44:46;;;;;;;10.40;6.83;;;;;;;13.04;79.86;99973.09;5054078;28;20214;-67
2023/10/24 10:47:15;;;;;;;8.70;6.93;;;;;;;13.12;79.57;99972.06;5001348;28;20208;-69
2023/10/24 10:49:47;;;;;;;9.57;7.40;;;;;;;13.17;79.25;99954.69;5001483;28;20207;-65
2023/10/24 10:52:50;;;;;;;10.07;6.57;;;;;;;13.22;78.88;99958.03;5025893;28;20281;-74
2023/10/24 10:55:41;;;;;;;10.63;7.10;;;;;;;13.28;78.70;99955.31;5014851;28;20206;-78
2023/10/24 10:58:22;;;;;;;9.37;7.00;;;;;;;13.37;78.69;99962.03;4995913;28;20283;-74
2023/10/24 11:01:00;;;;;;;8.53;6.40;;;;;;;13.36;78.31;99963.72;5050941;28;20228;-76
2023/10/24 11:03:39;;;;;;;7.50;5.73;;;;;;;13.46;77.99;99952.28;5063976;28;20247;-75
2023/10/24 11:06:09;;;;;;;7.47;5.57;;;;;;;13.52;77.56;99957.31;5054625;28;20311;-77
2023/10/24 11:08:37;;;;;;;8.73;5.73;;;;;;;13.59;76.80;99955.41;5049917;28;20198;-73
2023/10/24 11:11:10;;;;;;;10.27;5.13;;;;;;;13.73;76.29;99953.31;5052924;28;20198;-75
2023/10/24 11:13:41;;;;;;;7.50;4.73;;;;;;;13.97;75.92;99948.38;5055741;28;20241;-77
2023/10/24 11:16:10;;;;;;;9.70;5.27;;;;;;;14.35;74.93;99943.88;5055741;28;20237;-77
2023/10/24 11:18:57;;;;;;;10.10;5.17;;;;;;;14.71;71.76;99948.00;5054518;28;20206;-75
2023/10/24 11:21:25;;;;;;;7.40;5.10;;;;;;;15.11;71.24;99939.00;5044754;28;20282;-71
2023/10/24 11:23:53;;;;;;;5.30;4.63;;;;;;;15.49;69.22;99952.47;5052643;28;20888;-70